Time;durP1;ratioP1;P1;durP2;ratioP2;P2;SDS_P1;SDS_P2;PMS_P1;PMS_P2;Temp;Humidity;BMP_temperature;BMP_pressure;BME280_temperature;BME280_humidity;BME280_pressure;Samples;Min_cycle;Max_cycle;Signal;HPM_P1;HPM_P2
2022/05/18 00:00:07;;;;;;;0.30;0.30;;;16.60;99.90;;;;;;5051599;28;20045;-76
2022/05/18 00:02:33;;;;;;;0.25;0.25;;;16.50;99.90;;;;;;5041798;28;20546;-78
2022/05/18 00:04:59;;;;;;;;;;;16.40;99.90;;;;;;5023223;28;20475;-78
2022/05/18 00:07:24;;;;;;;0.40;0.40;;;16.50;99.90;;;;;;5038559;28;20023;-78
2022/05/18 00:09:51;;;;;;;0.30;0.30;;;16.50;99.90;;;;;;5045006;28;20073;-78
2022/05/18 00:12:17;;;;;;;0.40;0.40;;;16.40;99.90;;;;;;5035169;28;20047;-78
2022/05/18 00:14:44;;;;;;;0.30;0.30;;;16.40;99.90;;;;;;5053019;28;20049;-76
2022/05/18 00:17:10;;;;;;;0.20;0.20;;;16.40;99.90;;;;;;5048429;28;20041;-78
2022/05/18 00:19:37;;;;;;;;;;;16.40;99.90;;;;;;5033197;28;20094;-79
2022/05/18 00:22:03;;;;;;;0.40;0.40;;;16.40;99.90;;;;;;5032557;28;19928;-77
2022/05/18 00:24:29;;;;;;;0.20;0.20;;;16.30;99.90;;;;;;5040603;28;20125;-76
2022/05/18 00:26:55;;;;;;;;;;;16.30;99.90;;;;;;5044583;28;20450;-77
2022/05/18 00:29:20;;;;;;;0.30;0.30;;;16.20;99.90;;;;;;5035813;28;20015;-78
2022/05/18 00:31:46;;;;;;;;;;;16.20;99.90;;;;;;5024401;28;20118;-78
2022/05/18 00:34:13;;;;;;;0.30;0.30;;;16.20;99.90;;;;;;5036129;28;20420;-77
2022/05/18 00:36:39;;;;;;;0.30;0.30;;;16.20;99.90;;;;;;5044945;28;20099;-77
2022/05/18 00:39:05;;;;;;;0.30;0.30;;;16.10;99.90;;;;;;5053397;28;20548;-76
2022/05/18 00:41:31;;;;;;;0.40;0.40;;;16.10;99.90;;;;;;5026471;28;20051;-79
2022/05/18 00:43:57;;;;;;;0.20;0.20;;;16.00;99.90;;;;;;5037827;28;20638;-77
2022/05/18 00:46:23;;;;;;;;;;;16.00;99.90;;;;;;5022602;28;20086;-78
2022/05/18 00:48:49;;;;;;;0.20;0.20;;;16.00;99.90;;;;;;5025724;28;19925;-78
2022/05/18 00:51:47;;;;;;;0.40;0.40;;;15.90;99.90;;;;;;5024788;28;20511;-77
2022/05/18 00:54:18;;;;;;;0.20;0.20;;;15.90;99.90;;;;;;5056380;28;20034;-77
2022/05/18 00:56:58;;;;;;;0.15;0.15;;;15.90;99.90;;;;;;5026780;28;20063;-78
2022/05/18 00:59:44;;;;;;;0.20;0.20;;;15.80;99.90;;;;;;5044491;28;20045;-77
2022/05/18 01:02:10;;;;;;;0.20;0.20;;;15.80;99.90;;;;;;5019104;28;20058;-77
2022/05/18 01:04:38;;;;;;;0.30;0.30;;;15.80;99.90;;;;;;5021344;28;20052;-78
2022/05/18 01:07:09;;;;;;;0.73;0.65;;;15.70;99.90;;;;;;5033592;28;20384;-79
2022/05/18 01:09:41;;;;;;;0.40;0.40;;;15.70;99.90;;;;;;5064235;28;20052;-76
2022/05/18 01:12:10;;;;;;;0.30;0.30;;;15.60;99.90;;;;;;5018226;28;20042;-77
2022/05/18 01:14:40;;;;;;;0.22;0.22;;;15.60;99.90;;;;;;5030913;28;20078;-78
2022/05/18 01:17:06;;;;;;;1.00;0.40;;;15.50;99.90;;;;;;5014905;28;20053;-77
2022/05/18 01:19:44;;;;;;;0.20;0.20;;;15.50;99.90;;;;;;5052635;28;20041;-77
2022/05/18 01:22:50;;;;;;;0.30;0.30;;;15.50;99.90;;;;;;5047875;28;20044;-78
2022/05/18 01:25:53;;;;;;;0.32;0.32;;;15.50;99.90;;;;;;5004381;28;20045;-78
2022/05/18 01:28:23;;;;;;;0.20;0.20;;;15.40;99.90;;;;;;5044195;28;20045;-79
2022/05/18 01:30:49;;;;;;;0.35;0.35;;;15.40;99.90;;;;;;5033050;28;20118;-77
2022/05/18 01:33:16;;;;;;;;;;;15.40;99.90;;;;;;5027707;28;20463;-79
2022/05/18 01:35:44;;;;;;;0.30;0.30;;;15.50;99.90;;;;;;5049786;28;19925;-78
2022/05/18 01:38:13;;;;;;;0.22;0.22;;;15.40;99.90;;;;;;5036741;28;20045;-79
2022/05/18 01:40:55;;;;;;;0.30;0.30;;;15.40;99.90;;;;;;5021993;28;20045;-79
2022/05/18 01:43:45;;;;;;;0.30;0.30;;;15.40;99.90;;;;;;5032743;28;20073;-77
2022/05/18 01:46:13;;;;;;;0.22;0.22;;;15.40;99.90;;;;;;5024102;28;20631;-77
2022/05/18 01:48:46;;;;;;;0.30;0.30;;;15.30;99.90;;;;;;5038723;28;20051;-78
2022/05/18 01:51:25;;;;;;;0.45;0.45;;;15.30;99.90;;;;;;5024648;28;20033;-77
2022/05/18 01:53:51;;;;;;;0.68;0.68;;;15.30;99.90;;;;;;5029652;28;20049;-78
2022/05/18 01:56:17;;;;;;;;;;;15.30;99.90;;;;;;5033768;28;20042;-78
2022/05/18 01:58:42;;;;;;;0.43;0.43;;;15.20;99.90;;;;;;5023401;28;19917;-78
2022/05/18 02:01:08;;;;;;;;;;;15.10;99.90;;;;;;5021748;28;20123;-78
2022/05/18 02:03:34;;;;;;;0.20;0.20;;;15.10;99.90;;;;;;5032467;28;19921;-78
2022/05/18 02:05:59;;;;;;;;;;;15.10;99.90;;;;;;5033538;28;20033;-78
2022/05/18 02:08:25;;;;;;;0.38;0.38;;;15.10;99.90;;;;;;5039730;28;19924;-78
2022/05/18 02:10:51;;;;;;;0.32;0.32;;;15.10;99.90;;;;;;5046408;28;20374;-78
2022/05/18 02:13:17;;;;;;;0.20;0.20;;;15.00;99.90;;;;;;5032096;28;20145;-78
2022/05/18 02:15:43;;;;;;;0.20;0.20;;;15.00;99.90;;;;;;5035966;28;20052;-77
2022/05/18 02:18:09;;;;;;;;;;;15.00;99.90;;;;;;5020197;28;20064;-78
2022/05/18 02:20:35;;;;;;;0.20;0.20;;;14.90;99.90;;;;;;5035257;28;19924;-78
2022/05/18 02:23:02;;;;;;;0.28;0.28;;;14.90;99.90;;;;;;5003161;28;20128;-78
2022/05/18 02:25:28;;;;;;;0.30;0.30;;;14.80;99.90;;;;;;4993348;28;20049;-77
2022/05/18 02:27:55;;;;;;;0.20;0.20;;;14.80;99.90;;;;;;5049199;28;20123;-78
2022/05/18 02:30:21;;;;;;;0.20;0.20;;;14.80;99.90;;;;;;4998507;28;20041;-77
2022/05/18 02:32:47;;;;;;;0.30;0.30;;;14.80;99.90;;;;;;5047495;28;20140;-77
2022/05/18 02:35:12;;;;;;;;;;;14.80;99.90;;;;;;5048847;28;20044;-78
2022/05/18 02:37:38;;;;;;;0.52;0.52;;;14.70;99.90;;;;;;5017074;28;20001;-78
2022/05/18 02:40:06;;;;;;;0.30;0.30;;;14.70;99.90;;;;;;5023069;28;20052;-76
2022/05/18 02:42:32;;;;;;;0.30;0.30;;;14.70;99.90;;;;;;5059387;28;20049;-78
2022/05/18 02:44:58;;;;;;;0.20;0.20;;;14.70;99.90;;;;;;5047229;28;20041;-77
2022/05/18 02:47:23;;;;;;;;;;;14.60;99.90;;;;;;5032190;28;20046;-78
2022/05/18 02:49:51;;;;;;;0.30;0.30;;;14.60;99.90;;;;;;5030840;28;19974;-77
2022/05/18 02:52:17;;;;;;;0.22;0.22;;;14.50;99.90;;;;;;5003373;28;20385;-77
2022/05/18 02:57:27;;;;;;;0.30;0.30;;;14.40;99.90;;;;;;5020779;28;19917;-78
2022/05/18 02:59:53;;;;;;;;;;;14.30;99.90;;;;;;4998227;28;20087;-78
2022/05/18 03:02:18;;;;;;;0.20;0.20;;;14.20;99.90;;;;;;5030875;28;20027;-79
2022/05/18 03:04:44;;;;;;;;;;;14.20;99.90;;;;;;5033012;28;20080;-79
2022/05/18 03:07:10;;;;;;;0.30;0.30;;;14.10;99.90;;;;;;5035065;28;19944;-78
2022/05/18 03:09:36;;;;;;;0.45;0.45;;;14.10;99.90;;;;;;5031519;28;20049;-78
2022/05/18 03:12:03;;;;;;;0.30;0.30;;;14.10;99.90;;;;;;5017144;28;20042;-78
2022/05/18 03:14:29;;;;;;;0.20;0.20;;;14.10;99.90;;;;;;5020275;28;20041;-79
2022/05/18 03:16:54;;;;;;;0.28;0.28;;;14.10;99.90;;;;;;5025267;28;20424;-79
2022/05/18 03:19:20;;;;;;;;;;;14.10;99.90;;;;;;5027591;28;20040;-78
2022/05/18 03:24:30;;;;;;;0.28;0.28;;;14.10;99.90;;;;;;5027514;28;20128;-79
2022/05/18 03:26:56;;;;;;;0.25;0.25;;;14.10;99.90;;;;;;5045446;28;20132;-78
2022/05/18 03:29:21;;;;;;;0.30;0.30;;;14.10;99.90;;;;;;5023184;28;20041;-77
2022/05/18 03:31:48;;;;;;;0.52;0.50;;;14.20;99.90;;;;;;5002871;28;20067;-78
2022/05/18 03:34:14;;;;;;;0.30;0.30;;;14.20;99.90;;;;;;5054455;28;20049;-78
2022/05/18 03:36:43;;;;;;;0.28;0.28;;;14.20;99.90;;;;;;5023118;28;20044;-77
2022/05/18 03:39:09;;;;;;;;;;;14.20;99.90;;;;;;5009142;28;20036;-77
2022/05/18 03:41:40;;;;;;;0.40;0.40;;;14.20;99.90;;;;;;5043456;28;19925;-77
2022/05/18 03:44:08;;;;;;;0.32;0.32;;;14.30;99.90;;;;;;5042270;28;20041;-79
2022/05/18 03:46:34;;;;;;;0.32;0.32;;;14.30;99.90;;;;;;5034440;28;20045;-78
2022/05/18 03:49:00;;;;;;;0.30;0.30;;;14.30;99.90;;;;;;5045717;28;20057;-78
2022/05/18 03:51:26;;;;;;;0.50;0.50;;;14.30;99.90;;;;;;5029919;28;20179;-78
2022/05/18 03:53:52;;;;;;;;;;;14.30;99.90;;;;;;5030723;28;20120;-78
2022/05/18 03:56:18;;;;;;;0.40;0.40;;;14.30;99.90;;;;;;5012382;28;20015;-78
2022/05/18 03:58:44;;;;;;;;;;;14.30;99.90;;;;;;5016826;28;20495;-78
2022/05/18 04:01:10;;;;;;;0.20;0.20;;;14.30;99.90;;;;;;5028599;28;19925;-78
2022/05/18 04:03:42;;;;;;;0.20;0.20;;;14.30;99.90;;;;;;5037595;28;20045;-79
2022/05/18 04:06:08;;;;;;;0.20;0.20;;;14.40;99.90;;;;;;5033299;28;20454;-79
2022/05/18 04:08:34;;;;;;;0.30;0.30;;;14.40;99.90;;;;;;5023240;28;20044;-78
2022/05/18 04:11:00;;;;;;;0.30;0.30;;;14.40;99.90;;;;;;5000204;28;20033;-79
2022/05/18 04:13:27;;;;;;;0.40;0.40;;;14.40;99.90;;;;;;5007286;28;20398;-78
2022/05/18 04:15:54;;;;;;;0.30;0.30;;;14.50;99.90;;;;;;5056192;28;20060;-79
2022/05/18 04:18:20;;;;;;;0.20;0.20;;;14.50;99.90;;;;;;5049762;28;20030;-78
2022/05/18 04:20:46;;;;;;;;;;;14.60;99.90;;;;;;5033010;28;20049;-78
2022/05/18 04:23:12;;;;;;;0.30;0.30;;;14.60;99.90;;;;;;5044271;28;19928;-77
2022/05/18 04:25:39;;;;;;;0.40;0.40;;;14.60;99.90;;;;;;5037328;28;20037;-78
2022/05/18 04:28:07;;;;;;;0.30;0.30;;;14.70;99.90;;;;;;5039044;28;20087;-77
2022/05/18 04:30:34;;;;;;;0.30;0.30;;;14.70;99.90;;;;;;5024437;28;20036;-78
2022/05/18 04:33:00;;;;;;;0.30;0.30;;;14.80;99.90;;;;;;5024846;28;20103;-78
2022/05/18 04:35:28;;;;;;;0.30;0.30;;;14.80;99.90;;;;;;5041811;28;20053;-78
2022/05/18 04:37:54;;;;;;;0.40;0.38;;;14.80;99.90;;;;;;5047941;28;20374;-78
2022/05/18 04:40:20;;;;;;;;;;;14.90;99.90;;;;;;5052596;28;20037;-78
2022/05/18 04:42:47;;;;;;;0.30;0.30;;;15.00;99.90;;;;;;5032559;28;20372;-77
2022/05/18 04:45:17;;;;;;;0.55;0.55;;;15.10;99.90;;;;;;5020015;28;20602;-78
2022/05/18 04:47:43;;;;;;;0.30;0.30;;;15.20;99.90;;;;;;5036699;28;20041;-78
2022/05/18 04:50:10;;;;;;;0.30;0.30;;;15.30;99.90;;;;;;5047265;28;20061;-78
2022/05/18 04:52:36;;;;;;;0.22;0.22;;;15.40;99.90;;;;;;5029255;28;20135;-78
2022/05/18 04:55:01;;;;;;;;;;;15.50;99.90;;;;;;5030874;28;20037;-79
2022/05/18 04:57:27;;;;;;;0.20;0.20;;;15.60;99.90;;;;;;5038442;28;19920;-79
2022/05/18 04:59:53;;;;;;;;;;;15.70;99.90;;;;;;5037319;28;20045;-77
2022/05/18 05:02:19;;;;;;;0.30;0.30;;;15.90;99.90;;;;;;5028118;28;20378;-77
2022/05/18 05:04:44;;;;;;;;;;;16.00;99.90;;;;;;5030083;28;20056;-77
2022/05/18 05:07:11;;;;;;;0.35;0.35;;;16.10;99.90;;;;;;5029764;28;20291;-77
2022/05/18 05:09:37;;;;;;;0.40;0.40;;;16.10;99.90;;;;;;5046289;28;20499;-80
2022/05/18 05:12:04;;;;;;;;;;;16.20;99.90;;;;;;5019804;28;20022;-77
2022/05/18 05:14:29;;;;;;;0.55;0.47;;;16.20;99.90;;;;;;5055955;28;19917;-78
2022/05/18 05:16:55;;;;;;;;;;;16.30;99.90;;;;;;5029522;28;20095;-77
2022/05/18 05:19:21;;;;;;;0.30;0.30;;;16.40;99.90;;;;;;5014507;28;19940;-77
2022/05/18 05:21:46;;;;;;;;;;;16.40;99.90;;;;;;5045698;28;20049;-78
2022/05/18 05:24:14;;;;;;;0.47;0.47;;;16.40;99.90;;;;;;5029558;28;20293;-78
2022/05/18 05:26:41;;;;;;;0.30;0.30;;;16.40;99.90;;;;;;5029869;28;20084;-77
2022/05/18 05:29:11;;;;;;;0.30;0.30;;;16.40;99.90;;;;;;5012761;28;20064;-78
2022/05/18 05:31:37;;;;;;;0.30;0.30;;;16.40;99.90;;;;;;5012039;28;20463;-79
2022/05/18 05:34:04;;;;;;;0.30;0.30;;;16.50;99.90;;;;;;5043106;28;20042;-78
2022/05/18 05:36:29;;;;;;;0.30;0.30;;;16.60;99.90;;;;;;5028784;28;20030;-78
2022/05/18 05:38:55;;;;;;;;;;;16.70;99.90;;;;;;5030265;28;20033;-78
2022/05/18 05:41:21;;;;;;;0.20;0.20;;;16.80;99.90;;;;;;5029679;28;19931;-77
2022/05/18 05:43:47;;;;;;;;;;;16.90;99.90;;;;;;5012598;28;20112;-78
2022/05/18 05:46:13;;;;;;;0.40;0.40;;;16.90;99.90;;;;;;5030027;28;19941;-78
2022/05/18 05:48:42;;;;;;;0.40;0.40;;;17.00;99.90;;;;;;5029128;28;20102;-78
2022/05/18 05:51:12;;;;;;;0.65;0.65;;;17.10;99.90;;;;;;5014481;28;20076;-79
2022/05/18 05:53:42;;;;;;;0.70;0.70;;;17.10;99.90;;;;;;5012461;28;20045;-76
2022/05/18 05:56:08;;;;;;;0.60;0.60;;;17.20;99.90;;;;;;5038253;28;20116;-79
2022/05/18 05:58:36;;;;;;;0.20;0.20;;;17.20;99.90;;;;;;5049728;28;20091;-78
2022/05/18 06:01:04;;;;;;;0.73;0.73;;;17.30;99.90;;;;;;5030104;28;20061;-78
2022/05/18 06:03:30;;;;;;;0.40;0.40;;;17.30;99.90;;;;;;5046601;28;20069;-78
2022/05/18 06:05:56;;;;;;;0.43;0.40;;;17.40;99.90;;;;;;5034350;28;20046;-78
2022/05/18 06:08:23;;;;;;;0.30;0.30;;;17.40;99.90;;;;;;5045198;28;20077;-80
2022/05/18 06:10:49;;;;;;;0.52;0.50;;;17.50;99.90;;;;;;5022454;28;20497;-74
2022/05/18 06:13:15;;;;;;;;;;;17.60;99.90;;;;;;5044875;28;20045;-74
2022/05/18 06:15:41;;;;;;;0.30;0.30;;;17.60;99.90;;;;;;5014587;28;19928;-76
2022/05/18 06:18:07;;;;;;;0.30;0.30;;;17.80;99.90;;;;;;5028561;28;20116;-78
2022/05/18 06:20:33;;;;;;;0.70;0.57;;;17.90;99.90;;;;;;5047932;28;20472;-79
2022/05/18 06:22:59;;;;;;;;;;;18.10;99.90;;;;;;5029195;28;20045;-77
2022/05/18 06:25:25;;;;;;;0.30;0.30;;;18.20;99.90;;;;;;5014065;28;20052;-72
2022/05/18 06:27:51;;;;;;;;;;;18.30;99.90;;;;;;5017637;28;20124;-77
2022/05/18 06:30:17;;;;;;;0.60;0.60;;;18.50;99.90;;;;;;5029829;28;20012;-80
2022/05/18 06:32:43;;;;;;;0.35;0.35;;;18.60;99.90;;;;;;5011236;28;20049;-77
2022/05/18 06:35:08;;;;;;;;;;;18.70;99.90;;;;;;5029906;28;20172;-76
2022/05/18 06:37:34;;;;;;;0.30;0.30;;;18.80;99.90;;;;;;5028581;28;20536;-76
2022/05/18 06:40:07;;;;;;;;;;;18.90;99.90;;;;;;5030071;28;20128;-74
2022/05/18 06:42:33;;;;;;;0.38;0.38;;;19.10;99.90;;;;;;5032427;28;20316;-77
2022/05/18 06:45:00;;;;;;;0.55;0.55;;;19.20;99.90;;;;;;5040140;28;20788;-76
2022/05/18 06:47:26;;;;;;;0.50;0.50;;;19.30;99.90;;;;;;5036207;28;20172;-76
2022/05/18 06:49:52;;;;;;;0.28;0.28;;;19.50;99.90;;;;;;5030855;28;20532;-79
2022/05/18 06:52:19;;;;;;;1.23;1.10;;;19.70;99.90;;;;;;5019475;28;20044;-73
2022/05/18 06:54:46;;;;;;;0.22;0.22;;;19.80;99.90;;;;;;5029503;28;20046;-76
2022/05/18 06:57:15;;;;;;;0.70;0.70;;;19.90;99.90;;;;;;5027040;28;20045;-81
2022/05/18 06:59:43;;;;;;;0.30;0.30;;;20.00;99.90;;;;;;5029862;28;20476;-78
2022/05/18 07:02:09;;;;;;;0.40;0.40;;;20.20;99.90;;;;;;5009884;28;20099;-76
2022/05/18 07:04:35;;;;;;;0.20;0.20;;;20.30;99.90;;;;;;5044556;28;20057;-74
2022/05/18 07:07:02;;;;;;;0.50;0.50;;;20.40;99.90;;;;;;5015306;28;20056;-76
2022/05/18 07:09:29;;;;;;;0.45;0.45;;;20.50;99.90;;;;;;5029742;28;20076;-78
2022/05/18 07:11:55;;;;;;;0.70;0.70;;;20.50;99.90;;;;;;5028448;28;20549;-74
2022/05/18 07:14:24;;;;;;;0.77;0.77;;;20.60;99.90;;;;;;5041191;28;20048;-76
2022/05/18 07:16:50;;;;;;;0.28;0.28;;;20.70;99.90;;;;;;5042287;28;20490;-74
2022/05/18 07:19:17;;;;;;;0.30;0.30;;;20.80;99.90;;;;;;5032900;28;20045;-77
2022/05/18 07:21:44;;;;;;;0.52;0.52;;;21.00;99.90;;;;;;5013854;28;20048;-80
2022/05/18 07:24:10;;;;;;;0.25;0.25;;;21.20;99.90;;;;;;5045605;28;20465;-76
2022/05/18 07:26:36;;;;;;;0.40;0.40;;;21.40;99.90;;;;;;5015241;28;20053;-78
2022/05/18 07:29:06;;;;;;;0.28;0.28;;;21.50;99.90;;;;;;5031933;28;20524;-79
2022/05/18 07:34:17;;;;;;;0.43;0.43;;;21.70;99.90;;;;;;5037972;28;20083;-80
2022/05/18 07:36:46;;;;;;;0.35;0.35;;;21.80;99.90;;;;;;5047570;28;20078;-76
2022/05/18 07:39:12;;;;;;;0.30;0.30;;;21.90;99.90;;;;;;5025135;28;20068;-77
2022/05/18 07:41:38;;;;;;;0.82;0.80;;;22.00;99.90;;;;;;5010141;28;20164;-76
2022/05/18 07:44:04;;;;;;;0.25;0.25;;;22.10;99.90;;;;;;5043800;28;20406;-74
2022/05/18 07:46:33;;;;;;;0.30;0.30;;;22.10;99.90;;;;;;5055368;28;20541;-76
2022/05/18 07:48:59;;;;;;;1.40;1.30;;;22.30;99.90;;;;;;4997037;28;20077;-76
2022/05/18 07:51:24;;;;;;;0.40;0.40;;;22.50;99.90;;;;;;5028846;28;20043;-76
2022/05/18 07:53:50;;;;;;;0.32;0.32;;;22.50;99.90;;;;;;5017407;28;20128;-75
2022/05/18 07:56:16;;;;;;;0.30;0.30;;;22.50;99.90;;;;;;5012589;28;20045;-74
2022/05/18 07:58:43;;;;;;;0.40;0.40;;;22.60;99.90;;;;;;5022323;28;20155;-73
2022/05/18 08:01:09;;;;;;;0.20;0.20;;;22.70;99.90;;;;;;5047873;28;21336;-78
2022/05/18 08:03:36;;;;;;;2.83;0.95;;;22.80;99.90;;;;;;5011926;28;20049;-79
2022/05/18 08:06:02;;;;;;;0.30;0.30;;;23.00;99.90;;;;;;5030418;28;20047;-78
2022/05/18 08:08:28;;;;;;;0.40;0.40;;;23.10;99.90;;;;;;5064333;28;20120;-77
2022/05/18 08:16:42;;;;;;;0.30;0.30;;;23.60;99.90;;;;;;4996194;28;20053;-76
2022/05/18 08:19:12;;;;;;;0.40;0.40;;;23.70;99.90;;;;;;4996160;28;20107;-79
2022/05/18 08:21:38;;;;;;;0.50;0.50;;;23.70;99.90;;;;;;5045947;28;20388;-77
2022/05/18 08:24:05;;;;;;;0.38;0.32;;;23.80;99.90;;;;;;5027311;28;20045;-76
2022/05/18 08:26:33;;;;;;;0.50;0.50;;;23.90;99.90;;;;;;5031544;28;20103;-78
2022/05/18 08:29:03;;;;;;;0.32;0.32;;;23.90;99.90;;;;;;4995559;28;20057;-81
2022/05/18 08:31:30;;;;;;;0.22;0.22;;;25.10;99.90;;;;;;4995178;28;20056;-82
2022/05/18 08:33:56;;;;;;;0.30;0.30;;;24.20;99.90;;;;;;5047052;28;20038;-77
2022/05/18 08:36:25;;;;;;;1.92;0.85;;;24.30;99.90;;;;;;5034908;28;20044;-77
2022/05/18 08:38:51;;;;;;;0.30;0.30;;;24.40;99.90;;;;;;5036694;28;20485;-78
2022/05/18 08:41:32;;;;;;;0.82;0.65;;;24.50;99.90;;;;;;5050391;28;20124;-80
2022/05/18 08:44:02;;;;;;;0.40;0.40;;;24.50;99.90;;;;;;5015196;28;20049;-77
2022/05/18 08:46:43;;;;;;;0.22;0.22;;;24.50;99.90;;;;;;5035515;28;20079;-73
2022/05/18 08:49:27;;;;;;;0.40;0.40;;;24.50;99.40;;;;;;5023503;28;20050;-76
2022/05/18 08:52:31;;;;;;;0.30;0.30;;;24.60;99.90;;;;;;5024419;28;20091;-77
2022/05/18 08:55:15;;;;;;;0.55;0.55;;;24.60;97.00;;;;;;5021108;28;20041;-76
2022/05/18 08:57:43;;;;;;;0.85;0.38;;;24.70;96.90;;;;;;5037576;28;20120;-79
2022/05/18 09:00:36;;;;;;;0.20;0.20;;;24.80;97.60;;;;;;5031944;28;20099;-77
2022/05/18 09:03:22;;;;;;;0.60;0.60;;;24.80;96.90;;;;;;5011412;28;20057;-78
2022/05/18 09:06:09;;;;;;;1.27;0.60;;;24.90;94.80;;;;;;5008938;28;20850;-76
2022/05/18 09:08:38;;;;;;;0.30;0.30;;;24.80;95.50;;;;;;5034792;28;20466;-74
2022/05/18 09:11:14;;;;;;;0.80;0.77;;;25.00;97.00;;;;;;5027813;28;20079;-75
2022/05/18 09:13:40;;;;;;;0.53;0.53;;;25.10;95.50;;;;;;5033113;28;20434;-74
2022/05/18 09:16:14;;;;;;;0.20;0.20;;;25.10;95.50;;;;;;5014854;28;20049;-74
2022/05/18 09:18:59;;;;;;;0.65;0.52;;;25.30;94.50;;;;;;5043334;28;20104;-75
2022/05/18 09:21:55;;;;;;;1.15;0.43;;;25.40;94.70;;;;;;5029273;28;20045;-74
2022/05/18 09:25:00;;;;;;;0.45;0.45;;;25.40;92.60;;;;;;5028639;28;20530;-74
2022/05/18 09:28:08;;;;;;;1.60;0.95;;;25.40;90.80;;;;;;5028898;28;20057;-74
2022/05/18 09:30:54;;;;;;;0.57;0.57;;;25.30;90.70;;;;;;5022477;28;20091;-74
2022/05/18 09:33:39;;;;;;;0.52;0.52;;;25.30;90.90;;;;;;5046570;28;20079;-74
2022/05/18 09:36:04;;;;;;;0.30;0.30;;;25.40;90.40;;;;;;5025438;28;20080;-82
2022/05/18 09:38:55;;;;;;;0.38;0.28;;;25.50;90.00;;;;;;5027039;28;20398;-76
2022/05/18 09:41:27;;;;;;;0.20;0.20;;;25.60;89.00;;;;;;5036016;28;20060;-77
2022/05/18 09:44:07;;;;;;;0.40;0.40;;;25.70;89.70;;;;;;5026523;28;20154;-77
2022/05/18 09:46:34;;;;;;;0.52;0.40;;;25.80;88.00;;;;;;5040598;28;20049;-75
2022/05/18 09:49:31;;;;;;;0.40;0.40;;;25.80;87.90;;;;;;5044192;28;20179;-75
2022/05/18 09:52:02;;;;;;;0.30;0.30;;;25.80;85.70;;;;;;5038132;28;20033;-78
2022/05/18 09:54:30;;;;;;;0.32;0.32;;;25.90;88.50;;;;;;5032244;28;20709;-75
2022/05/18 09:57:05;;;;;;;0.32;0.32;;;26.10;89.70;;;;;;5036475;28;20069;-77
2022/05/18 09:59:39;;;;;;;0.68;0.68;;;26.40;87.40;;;;;;5052238;28;20099;-79
2022/05/18 10:07:51;;;;;;;0.40;0.40;;;26.50;86.30;;;;;;5032487;28;20050;-74
2022/05/18 10:10:20;;;;;;;0.17;0.17;;;26.60;84.00;;;;;;5017921;28;20573;-81
2022/05/18 10:12:54;;;;;;;0.30;0.30;;;26.60;84.70;;;;;;5021833;28;20037;-76
2022/05/18 10:15:26;;;;;;;0.65;0.65;;;26.70;84.90;;;;;;5051608;28;20059;-76
2022/05/18 10:18:09;;;;;;;0.40;0.40;;;26.80;84.00;;;;;;5050416;28;20049;-77
2022/05/18 10:20:36;;;;;;;0.40;0.40;;;26.90;83.70;;;;;;5036622;28;20475;-74
2022/05/18 10:23:03;;;;;;;0.40;0.40;;;26.90;82.70;;;;;;5033516;28;20068;-76
2022/05/18 10:25:41;;;;;;;0.40;0.40;;;26.90;81.80;;;;;;5030057;28;20287;-76
2022/05/18 10:28:19;;;;;;;0.60;0.60;;;27.10;83.50;;;;;;5023055;28;20099;-79
2022/05/18 10:31:01;;;;;;;0.20;0.20;;;27.20;82.60;;;;;;5030842;28;20844;-80
2022/05/18 10:33:33;;;;;;;0.32;0.32;;;27.40;83.40;;;;;;5024594;28;20344;-78
2022/05/18 10:36:12;;;;;;;0.52;0.50;;;27.50;81.40;;;;;;5014117;28;20073;-80
2022/05/18 10:38:48;;;;;;;1.13;0.90;;;27.60;80.50;;;;;;5013327;28;20444;-79
2022/05/18 10:41:17;;;;;;;0.80;0.75;;;27.60;80.00;;;;;;5030443;28;20131;-80
2022/05/18 10:44:05;;;;;;;0.30;0.25;;;27.50;78.20;;;;;;5010677;28;20202;-78
2022/05/18 10:46:53;;;;;;;0.20;0.20;;;27.50;79.00;;;;;;5043065;28;20041;-77
2022/05/18 10:49:24;;;;;;;0.63;0.50;;;27.50;80.10;;;;;;5015969;28;20114;-83
2022/05/18 10:52:14;;;;;;;0.63;0.63;;;27.60;79.10;;;;;;5025982;28;20037;-77
2022/05/18 10:54:56;;;;;;;0.95;0.95;;;27.70;79.70;;;;;;5033493;28;20414;-75
2022/05/18 10:57:36;;;;;;;0.30;0.30;;;27.60;79.10;;;;;;5048579;28;20045;-76
2022/05/18 11:00:40;;;;;;;0.52;0.52;;;27.60;80.50;;;;;;5054433;28;20052;-77
2022/05/18 11:03:35;;;;;;;0.40;0.40;;;27.40;80.70;;;;;;5033466;28;20136;-75
2022/05/18 11:06:20;;;;;;;0.35;0.35;;;27.30;80.00;;;;;;5016456;28;20100;-79
2022/05/18 11:08:46;;;;;;;0.95;0.70;;;27.10;80.70;;;;;;5040341;28;20041;-78
2022/05/18 11:11:26;;;;;;;0.63;0.63;;;27.20;81.90;;;;;;5044774;28;20131;-76
2022/05/18 11:14:16;;;;;;;0.60;0.60;;;27.40;82.50;;;;;;5036347;28;20075;-78
2022/05/18 11:17:09;;;;;;;0.75;0.70;;;27.60;82.10;;;;;;5022875;28;20040;-81
2022/05/18 11:19:49;;;;;;;0.75;0.75;;;27.80;83.10;;;;;;5037143;28;20045;-79
2022/05/18 11:22:30;;;;;;;0.45;0.45;;;28.10;82.80;;;;;;5030087;28;20037;-79
2022/05/18 11:25:34;;;;;;;0.65;0.52;;;28.30;80.60;;;;;;5023940;28;20107;-76
2022/05/18 11:28:12;;;;;;;0.57;0.50;;;28.20;81.20;;;;;;5038079;28;20104;-83
2022/05/18 11:31:13;;;;;;;0.93;0.57;;;28.10;80.50;;;;;;5010504;28;20045;-79
2022/05/18 11:33:58;;;;;;;3.90;2.80;;;28.00;80.30;;;;;;5032327;28;20041;-75
2022/05/18 11:36:48;;;;;;;0.68;0.52;;;28.00;80.20;;;;;;5031058;28;20164;-75
2022/05/18 11:39:17;;;;;;;1.00;0.90;;;28.10;80.70;;;;;;5031562;28;20048;-75
2022/05/18 11:42:20;;;;;;;1.65;1.50;;;28.30;80.30;;;;;;5035370;28;20128;-77
2022/05/18 11:45:06;;;;;;;0.50;0.40;;;28.20;79.30;;;;;;5023842;28;20092;-78
2022/05/18 11:48:00;;;;;;;1.00;0.93;;;28.40;82.10;;;;;;5030540;28;20564;-78
2022/05/18 11:50:59;;;;;;;0.60;0.60;;;28.80;80.50;;;;;;5028720;28;20053;-77
2022/05/18 11:53:49;;;;;;;1.17;0.90;;;29.00;80.50;;;;;;5015418;28;20091;-78
2022/05/18 11:56:52;;;;;;;3.20;1.70;;;29.30;78.40;;;;;;5041275;28;20045;-75
2022/05/18 11:59:38;;;;;;;1.15;1.05;;;29.30;76.80;;;;;;5041865;28;20099;-75
2022/05/18 12:02:42;;;;;;;0.38;0.38;;;29.40;77.50;;;;;;5049785;28;20045;-75
2022/05/18 12:05:29;;;;;;;0.55;0.55;;;29.80;77.80;;;;;;5041517;28;20038;-77
2022/05/18 12:07:57;;;;;;;1.85;1.75;;;29.80;77.40;;;;;;5051800;28;20124;-73
2022/05/18 12:10:46;;;;;;;0.30;0.30;;;29.80;77.00;;;;;;5021625;28;20095;-75
2022/05/18 12:13:24;;;;;;;2.42;1.40;;;29.80;77.30;;;;;;5036365;28;20052;-74
2022/05/18 12:16:12;;;;;;;1.08;0.73;;;29.60;76.10;;;;;;5023455;28;20056;-77
2022/05/18 12:18:42;;;;;;;0.47;0.45;;;29.10;77.00;;;;;;5024883;28;20137;-77
2022/05/18 12:21:19;;;;;;;1.00;0.50;;;28.90;77.60;;;;;;5027203;28;20067;-76
2022/05/18 12:23:53;;;;;;;0.30;0.30;;;29.00;79.80;;;;;;5039058;28;20120;-76
2022/05/18 12:26:21;;;;;;;0.20;0.20;;;29.30;78.90;;;;;;5025776;28;20041;-78
2022/05/18 12:28:49;;;;;;;0.57;0.57;;;29.90;79.60;;;;;;5041389;28;20057;-76
2022/05/18 12:31:17;;;;;;;0.77;0.40;;;30.50;78.40;;;;;;5043795;28;20046;-75
2022/05/18 12:33:47;;;;;;;1.05;0.95;;;30.70;76.30;;;;;;5036865;28;20047;-74
2022/05/18 12:36:28;;;;;;;1.55;1.27;;;30.80;76.70;;;;;;5028738;28;20413;-81
2022/05/18 12:39:15;;;;;;;1.13;0.60;;;30.70;75.40;;;;;;5008365;28;21160;-75
2022/05/18 12:41:49;;;;;;;0.90;0.60;;;30.20;75.30;;;;;;5007910;28;20092;-75
2022/05/18 12:44:25;;;;;;;0.30;0.30;;;29.80;75.50;;;;;;5051127;28;20037;-74
2022/05/18 12:47:01;;;;;;;3.90;0.80;;;29.40;76.60;;;;;;5022678;28;20083;-77
2022/05/18 12:49:42;;;;;;;1.67;0.90;;;29.20;77.10;;;;;;5037451;28;20627;-77
2022/05/18 12:52:47;;;;;;;0.73;0.47;;;29.00;76.90;;;;;;5039845;28;20637;-75
2022/05/18 12:55:31;;;;;;;0.60;0.60;;;28.70;77.40;;;;;;5018785;28;20049;-75
2022/05/18 12:58:06;;;;;;;0.98;0.95;;;28.50;78.60;;;;;;5034187;28;20052;-77
2022/05/18 13:00:31;;;;;;;0.55;0.40;;;28.40;79.00;;;;;;5044774;28;20037;-76
2022/05/18 13:03:09;;;;;;;2.10;1.55;;;28.30;79.40;;;;;;5013625;28;20045;-77
2022/05/18 13:05:40;;;;;;;0.40;0.40;;;28.10;80.10;;;;;;5023244;28;20050;-75
2022/05/18 13:08:15;;;;;;;0.50;0.50;;;28.00;81.30;;;;;;5029354;28;20095;-70
2022/05/18 13:11:19;;;;;;;1.85;1.17;;;27.80;83.40;;;;;;5039295;28;20077;-72
2022/05/18 13:14:05;;;;;;;0.68;0.60;;;27.40;84.90;;;;;;5036149;28;20484;-75
2022/05/18 13:16:37;;;;;;;1.13;1.00;;;27.10;87.30;;;;;;5022542;28;20048;-75
2022/05/18 13:19:24;;;;;;;2.58;2.35;;;26.80;88.50;;;;;;5020244;28;20073;-76
2022/05/18 13:22:12;;;;;;;0.70;0.70;;;26.40;90.00;;;;;;5026005;28;20045;-76
2022/05/18 13:24:56;;;;;;;1.45;0.95;;;26.20;92.10;;;;;;5017670;28;20034;-77
2022/05/18 13:27:41;;;;;;;1.55;1.15;;;26.00;93.00;;;;;;5036791;28;20076;-76
2022/05/18 13:30:13;;;;;;;0.95;0.90;;;25.80;93.00;;;;;;5019166;28;20733;-77
2022/05/18 13:32:41;;;;;;;1.05;0.65;;;25.80;95.50;;;;;;5027773;28;20045;-75
2022/05/18 13:35:21;;;;;;;0.38;0.38;;;25.90;95.60;;;;;;5026357;28;20040;-74
2022/05/18 13:38:03;;;;;;;0.98;0.77;;;26.20;95.50;;;;;;5045674;28;20113;-78
2022/05/18 13:40:30;;;;;;;0.52;0.43;;;26.40;95.10;;;;;;5034207;28;20118;-74